Private Wetterstation Sandau
Wetterdaten: Samstag, 02.03.2013
Datum Zeit Temp. A. Feuchte A. Luftdruck Regen Wind Richtung Richtung Taupunkt Windchill
02.03.2013 00:01 -0,7 C 90 % 1025,0 hPa 0,0 l/m 4,3 km/h (1 Bft) W-NW 292 -2,1 C -0,7 C
02.03.2013 00:06 -0,7 C 90 % 1025,0 hPa 0,0 l/m 4,3 km/h (1 Bft) W-NW 292 -2,1 C -0,7 C
02.03.2013 00:11 -0,7 C 90 % 1024,9 hPa 0,0 l/m 1,4 km/h (1 Bft) W-NW 292 -2,1 C -0,7 C
02.03.2013 00:16 -0,7 C 90 % 1025,1 hPa 0,0 l/m 1,1 km/h (1 Bft) W-NW 292 -2,1 C -0,7 C
02.03.2013 00:21 -0,8 C 90 % 1025,0 hPa 0,0 l/m 0,0 km/h (0 Bft) W 270 -2,2 C -0,8 C
02.03.2013 00:26 -0,8 C 90 % 1025,0 hPa 0,0 l/m 3,2 km/h (1 Bft) W 270 -2,2 C -0,8 C
02.03.2013 00:31 -0,8 C 90 % 1025,1 hPa 0,0 l/m 4,0 km/h (1 Bft) W 270 -2,2 C -0,8 C
02.03.2013 00:36 -0,9 C 90 % 1025,0 hPa 0,0 l/m 3,2 km/h (1 Bft) W 270 -2,3 C -0,9 C
02.03.2013 00:41 -0,8 C 90 % 1025,0 hPa 0,0 l/m 2,9 km/h (1 Bft) W 270 -2,2 C -0,8 C
02.03.2013 00:46 -0,9 C 90 % 1025,3 hPa 0,0 l/m 3,6 km/h (1 Bft) W 270 -2,3 C -0,9 C
02.03.2013 00:51 -0,9 C 90 % 1025,1 hPa 0,0 l/m 1,8 km/h (1 Bft) W 270 -2,3 C -0,9 C
02.03.2013 00:56 -0,9 C 90 % 1025,2 hPa 0,0 l/m 2,9 km/h (1 Bft) W-NW 292 -2,3 C -0,9 C
02.03.2013 01:01 -0,9 C 90 % 1025,3 hPa 0,0 l/m 6,1 km/h (2 Bft) W-NW 292 -2,3 C -3,1 C
02.03.2013 01:06 -0,9 C 90 % 1025,2 hPa 0,0 l/m 4,0 km/h (1 Bft) NW 315 -2,3 C -0,9 C
02.03.2013 01:11 -0,9 C 90 % 1025,3 hPa 0,0 l/m 2,9 km/h (1 Bft) NW 315 -2,3 C -0,9 C
02.03.2013 01:16 -1,0 C 90 % 1025,1 hPa 0,0 l/m 2,9 km/h (1 Bft) W-NW 292 -2,4 C -1,0 C
02.03.2013 01:21 -1,0 C 90 % 1025,2 hPa 0,0 l/m 2,5 km/h (1 Bft) W-NW 292 -2,4 C -1,0 C
02.03.2013 01:26 -1,1 C 90 % 1025,2 hPa 0,0 l/m 2,5 km/h (1 Bft) NW 315 -2,5 C -1,1 C
02.03.2013 01:31 -1,1 C 90 % 1025,2 hPa 0,0 l/m 3,2 km/h (1 Bft) NW 315 -2,5 C -1,1 C
02.03.2013 01:36 -1,1 C 90 % 1025,3 hPa 0,0 l/m 2,2 km/h (1 Bft) NW 315 -2,5 C -1,1 C
02.03.2013 01:41 -1,1 C 90 % 1025,1 hPa 0,0 l/m 2,2 km/h (1 Bft) NW 315 -2,5 C -1,1 C
02.03.2013 01:46 -1,1 C 90 % 1025,1 hPa 0,0 l/m 2,5 km/h (1 Bft) NW 315 -2,5 C -1,1 C
02.03.2013 01:51 -1,2 C 90 % 1025,1 hPa 0,0 l/m 1,1 km/h (1 Bft) N-NW 337 -2,6 C -1,2 C
02.03.2013 01:56 -1,2 C 90 % 1025,2 hPa 0,0 l/m 1,4 km/h (1 Bft) N-NW 337 -2,6 C -1,2 C
02.03.2013 02:01 -1,2 C 90 % 1025,0 hPa 0,0 l/m 2,5 km/h (1 Bft) N-NW 337 -2,6 C -1,2 C
02.03.2013 02:06 -1,3 C 90 % 1025,1 hPa 0,0 l/m 2,9 km/h (1 Bft) W-NW 292 -2,7 C -1,3 C
02.03.2013 02:11 -1,3 C 90 % 1025,0 hPa 0,0 l/m 0,0 km/h (0 Bft) W-NW 292 -2,7 C -1,3 C
02.03.2013 02:16 -1,4 C 90 % 1025,1 hPa 0,0 l/m 0,0 km/h (0 Bft) W-NW 292 -2,8 C -1,4 C
02.03.2013 02:21 -1,4 C 90 % 1024,9 hPa 0,0 l/m 1,4 km/h (1 Bft) W-NW 292 -2,8 C -1,4 C
02.03.2013 02:26 -1,5 C 90 % 1025,0 hPa 0,0 l/m 0,0 km/h (0 Bft) W-NW 292 -2,9 C -1,5 C
02.03.2013 02:31 -1,5 C 90 % 1025,0 hPa 0,0 l/m 2,2 km/h (1 Bft) W-NW 292 -2,9 C -1,5 C
02.03.2013 02:36 -1,5 C 90 % 1025,0 hPa 0,0 l/m 0,0 km/h (0 Bft) W-NW 292 -2,9 C -1,5 C
02.03.2013 02:41 -1,5 C 90 % 1025,0 hPa 0,0 l/m 0,0 km/h (0 Bft) W-NW 292 -2,9 C -1,5 C
02.03.2013 02:46 -1,5 C 90 % 1024,8 hPa 0,0 l/m 0,0 km/h (0 Bft) W-NW 292 -2,9 C -1,5 C
02.03.2013 02:51 -1,5 C 90 % 1025,0 hPa 0,0 l/m 1,1 km/h (1 Bft) W-NW 292 -2,9 C -1,5 C
02.03.2013 02:56 -1,4 C 91 % 1024,9 hPa 0,0 l/m 2,9 km/h (1 Bft) W-NW 292 -2,7 C -1,4 C
02.03.2013 03:01 -1,4 C 91 % 1024,9 hPa 0,0 l/m 2,9 km/h (1 Bft) W 270 -2,7 C -1,4 C
02.03.2013 03:06 -1,4 C 91 % 1024,9 hPa 0,0 l/m 0,0 km/h (0 Bft) W-NW 292 -2,7 C -1,4 C
02.03.2013 03:11 -1,4 C 91 % 1024,8 hPa 0,0 l/m 2,9 km/h (1 Bft) W 270 -2,7 C -1,4 C
02.03.2013 03:16 -1,4 C 91 % 1024,7 hPa 0,0 l/m 0,0 km/h (0 Bft) W 270 -2,7 C -1,4 C
02.03.2013 03:21 -1,4 C 91 % 1024,9 hPa 0,0 l/m 2,2 km/h (1 Bft) W 270 -2,7 C -1,4 C
02.03.2013 03:26 -1,3 C 91 % 1024,8 hPa 0,0 l/m 1,8 km/h (1 Bft) W 270 -2,6 C -1,3 C
02.03.2013 03:31 -1,3 C 91 % 1024,9 hPa 0,0 l/m 1,8 km/h (1 Bft) W 270 -2,6 C -1,3 C
02.03.2013 03:36 -1,4 C 91 % 1024,9 hPa 0,0 l/m 4,0 km/h (1 Bft) W 270 -2,7 C -1,4 C
02.03.2013 03:41 -1,4 C 91 % 1024,9 hPa 0,0 l/m 3,2 km/h (1 Bft) W 270 -2,7 C -1,4 C
02.03.2013 03:46 -1,4 C 91 % 1024,8 hPa 0,0 l/m 2,5 km/h (1 Bft) W 270 -2,7 C -1,4 C
02.03.2013 03:51 -1,5 C 91 % 1024,8 hPa 0,0 l/m 4,3 km/h (1 Bft) W 270 -2,8 C -1,5 C
02.03.2013 03:56 -1,5 C 91 % 1024,9 hPa 0,0 l/m 3,6 km/h (1 Bft) W 270 -2,8 C -1,5 C
02.03.2013 04:01 -1,5 C 91 % 1025,0 hPa 0,0 l/m 4,7 km/h (1 Bft) W 270 -2,8 C -3,1 C
02.03.2013 04:06 -1,5 C 91 % 1025,0 hPa 0,0 l/m 2,2 km/h (1 Bft) W 270 -2,8 C -1,5 C
02.03.2013 04:11 -1,5 C 91 % 1025,0 hPa 0,0 l/m 0,0 km/h (0 Bft) W 270 -2,8 C -1,5 C
02.03.2013 04:16 -1,5 C 91 % 1025,0 hPa 0,0 l/m 1,4 km/h (1 Bft) W-NW 292 -2,8 C -1,5 C
02.03.2013 04:21 -1,5 C 91 % 1025,2 hPa 0,0 l/m 6,1 km/h (2 Bft) W-NW 292 -2,8 C -3,8 C
02.03.2013 04:26 -1,5 C 91 % 1025,1 hPa 0,0 l/m 4,7 km/h (1 Bft) W-NW 292 -2,8 C -3,1 C
02.03.2013 04:31 -1,5 C 91 % 1024,9 hPa 0,0 l/m 2,5 km/h (1 Bft) W-NW 292 -2,8 C -1,5 C
02.03.2013 04:36 -1,5 C 91 % 1025,2 hPa 0,0 l/m 3,2 km/h (1 Bft) W-NW 292 -2,8 C -1,5 C
02.03.2013 04:41 -1,5 C 91 % 1025,1 hPa 0,0 l/m 2,5 km/h (1 Bft) W-NW 292 -2,8 C -1,5 C
02.03.2013 04:46 -1,5 C 91 % 1025,0 hPa 0,0 l/m 1,8 km/h (1 Bft) W 270 -2,8 C -1,5 C
02.03.2013 04:51 -1,5 C 91 % 1025,0 hPa 0,0 l/m 0,0 km/h (0 Bft) W 270 -2,8 C -1,5 C
02.03.2013 04:56 -1,6 C 91 % 1024,8 hPa 0,0 l/m 1,8 km/h (1 Bft) W 270 -2,9 C -1,6 C
02.03.2013 05:01 -1,6 C 91 % 1025,1 hPa 0,0 l/m 4,3 km/h (1 Bft) W 270 -2,9 C -1,6 C
02.03.2013 05:06 -1,6 C 91 % 1024,9 hPa 0,0 l/m 5,4 km/h (1 Bft) W-NW 292 -2,9 C -3,6 C
02.03.2013 05:11 -1,6 C 91 % 1025,0 hPa 0,0 l/m 4,0 km/h (1 Bft) W-NW 292 -2,9 C -1,6 C
02.03.2013 05:16 -1,6 C 91 % 1025,0 hPa 0,0 l/m 0,0 km/h (0 Bft) W 270 -2,9 C -1,6 C
02.03.2013 05:21 -1,6 C 91 % 1025,1 hPa 0,0 l/m 3,6 km/h (1 Bft) W 270 -2,9 C -1,6 C
02.03.2013 05:26 -1,6 C 91 % 1025,1 hPa 0,0 l/m 4,7 km/h (1 Bft) W-NW 292 -2,9 C -3,3 C
02.03.2013 05:31 -1,6 C 91 % 1025,0 hPa 0,0 l/m 3,2 km/h (1 Bft) W-NW 292 -2,9 C -1,6 C
02.03.2013 05:36 -1,6 C 91 % 1025,0 hPa 0,0 l/m 3,6 km/h (1 Bft) W-NW 292 -2,9 C -1,6 C
02.03.2013 05:41 -1,7 C 91 % 1025,0 hPa 0,0 l/m 4,7 km/h (1 Bft) W 270 -3,0 C -3,4 C
02.03.2013 05:46 -1,7 C 91 % 1025,0 hPa 0,0 l/m 0,0 km/h (0 Bft) W 270 -3,0 C -1,7 C
02.03.2013 05:51 -1,7 C 91 % 1025,0 hPa 0,0 l/m 0,0 km/h (0 Bft) W 270 -3,0 C -1,7 C
02.03.2013 05:56 -1,7 C 91 % 1024,8 hPa 0,0 l/m 1,1 km/h (1 Bft) W 270 -3,0 C -1,7 C
02.03.2013 06:01 -1,7 C 91 % 1024,9 hPa 0,0 l/m 2,5 km/h (1 Bft) W 270 -3,0 C -1,7 C
02.03.2013 06:06 -1,7 C 91 % 1024,8 hPa 0,0 l/m 0,0 km/h (0 Bft) W 270 -3,0 C -1,7 C
02.03.2013 06:11 -1,8 C 91 % 1024,7 hPa 0,0 l/m 4,0 km/h (1 Bft) W 270 -3,1 C -1,8 C
02.03.2013 06:16 -1,8 C 91 % 1024,9 hPa 0,0 l/m 5,8 km/h (2 Bft) W 270 -3,1 C -4,0 C
02.03.2013 06:21 -1,8 C 91 % 1024,9 hPa 0,0 l/m 4,0 km/h (1 Bft) W-SW 247 -3,1 C -1,8 C
02.03.2013 06:26 -1,8 C 91 % 1024,7 hPa 0,0 l/m 2,2 km/h (1 Bft) W 270 -3,1 C -1,8 C
02.03.2013 06:31 -1,8 C 91 % 1024,6 hPa 0,0 l/m 4,7 km/h (1 Bft) W-NW 292 -3,1 C -3,5 C
02.03.2013 06:36 -1,8 C 91 % 1024,6 hPa 0,0 l/m 1,8 km/h (1 Bft) W 270 -3,1 C -1,8 C
02.03.2013 06:41 -1,8 C 91 % 1024,7 hPa 0,0 l/m 0,0 km/h (0 Bft) W 270 -3,1 C -1,8 C
02.03.2013 06:46 -1,9 C 91 % 1024,7 hPa 0,0 l/m 0,0 km/h (0 Bft) W 270 -3,2 C -1,9 C
02.03.2013 06:51 -1,9 C 91 % 1024,7 hPa 0,0 l/m 0,0 km/h (0 Bft) W 270 -3,2 C -1,9 C
02.03.2013 06:56 -1,9 C 91 % 1024,7 hPa 0,0 l/m 2,2 km/h (1 Bft) W 270 -3,2 C -1,9 C
02.03.2013 07:01 -1,9 C 91 % 1024,7 hPa 0,0 l/m 4,7 km/h (1 Bft) W-SW 247 -3,2 C -3,6 C
02.03.2013 07:06 -1,9 C 91 % 1024,8 hPa 0,0 l/m 4,3 km/h (1 Bft) W 270 -3,2 C -1,9 C
02.03.2013 07:11 -1,8 C 91 % 1025,0 hPa 0,0 l/m 4,0 km/h (1 Bft) W 270 -3,1 C -1,8 C
02.03.2013 07:16 -1,8 C 91 % 1024,9 hPa 0,0 l/m 0,0 km/h (0 Bft) W 270 -3,1 C -1,8 C
02.03.2013 07:21 -1,7 C 91 % 1024,9 hPa 0,0 l/m 2,5 km/h (1 Bft) W 270 -3,0 C -1,7 C
02.03.2013 07:26 -1,7 C 91 % 1024,7 hPa 0,0 l/m 2,5 km/h (1 Bft) W-NW 292 -3,0 C -1,7 C
02.03.2013 07:31 -1,7 C 92 % 1024,7 hPa 0,0 l/m 1,4 km/h (1 Bft) W 270 -2,8 C -1,7 C
02.03.2013 07:36 -1,6 C 92 % 1024,7 hPa 0,0 l/m 2,5 km/h (1 Bft) W-SW 247 -2,7 C -1,6 C
02.03.2013 07:41 -1,6 C 92 % 1024,7 hPa 0,0 l/m 3,6 km/h (1 Bft) W 270 -2,7 C -1,6 C
02.03.2013 07:46 -1,5 C 92 % 1024,7 hPa 0,0 l/m 2,2 km/h (1 Bft) W 270 -2,6 C -1,5 C
02.03.2013 07:51 -1,4 C 92 % 1024,6 hPa 0,0 l/m 1,1 km/h (1 Bft) W 270 -2,5 C -1,4 C
02.03.2013 07:56 -1,2 C 92 % 1024,8 hPa 0,0 l/m 3,6 km/h (1 Bft) W 270 -2,3 C -1,2 C
02.03.2013 08:01 -1,1 C 92 % 1024,8 hPa 0,0 l/m 5,8 km/h (2 Bft) W-NW 292 -2,2 C -3,2 C
02.03.2013 08:06 -1,0 C 92 % 1024,7 hPa 0,0 l/m 2,2 km/h (1 Bft) W 270 -2,1 C -1,0 C
02.03.2013 08:11 -0,9 C 92 % 1024,7 hPa 0,0 l/m 4,3 km/h (1 Bft) W 270 -2,0 C -0,9 C
02.03.2013 08:16 -0,8 C 92 % 1024,8 hPa 0,0 l/m 3,2 km/h (1 Bft) W-NW 292 -1,9 C -0,8 C
02.03.2013 08:21 -0,6 C 92 % 1025,0 hPa 0,0 l/m 4,7 km/h (1 Bft) W-SW 247 -1,7 C -2,1 C
02.03.2013 08:26 -0,4 C 92 % 1024,8 hPa 0,0 l/m 4,7 km/h (1 Bft) W 270 -1,5 C -1,9 C
02.03.2013 08:31 -0,2 C 92 % 1024,9 hPa 0,0 l/m 4,0 km/h (1 Bft) W-NW 292 -1,3 C -0,2 C
02.03.2013 08:36 -0,1 C 92 % 1025,0 hPa 0,0 l/m 5,0 km/h (1 Bft) W 270 -1,2 C -1,7 C
02.03.2013 08:41 0,2 C 92 % 1024,8 hPa 0,0 l/m 7,2 km/h (2 Bft) W-NW 292 -0,9 C -2,2 C
02.03.2013 08:46 0,3 C 92 % 1024,9 hPa 0,0 l/m 1,8 km/h (1 Bft) W-NW 292 -0,8 C 0,3 C
02.03.2013 08:51 0,3 C 92 % 1025,0 hPa 0,0 l/m 0,0 km/h (0 Bft) W 270 -0,8 C 0,3 C
02.03.2013 08:56 0,1 C 92 % 1024,8 hPa 0,0 l/m 8,6 km/h (2 Bft) NW 315 -1,0 C -2,8 C
02.03.2013 09:01 0,1 C 92 % 1024,8 hPa 0,0 l/m 5,4 km/h (1 Bft) W-NW 292 -1,0 C -1,7 C
02.03.2013 09:06 0,1 C 92 % 1025,0 hPa 0,0 l/m 4,3 km/h (1 Bft) W 270 -1,0 C 0,1 C
02.03.2013 09:11 0,2 C 92 % 1024,8 hPa 0,0 l/m 0,0 km/h (0 Bft) W-NW 292 -0,9 C 0,2 C
02.03.2013 09:16 0,4 C 92 % 1024,8 hPa 0,0 l/m 8,6 km/h (2 Bft) W-SW 247 -0,7 C -2,5 C
02.03.2013 09:21 0,4 C 92 % 1024,8 hPa 0,0 l/m 11,5 km/h (2 Bft) NW 315 -0,7 C -3,2 C
02.03.2013 09:26 0,6 C 92 % 1024,9 hPa 0,0 l/m 8,3 km/h (2 Bft) W-NW 292 -0,5 C -2,1 C
02.03.2013 09:31 0,6 C 91 % 1024,8 hPa 0,0 l/m 3,2 km/h (1 Bft) W-SW 247 -0,7 C 0,6 C
02.03.2013 09:36 0,8 C 91 % 1024,9 hPa 0,0 l/m 5,8 km/h (2 Bft) W-NW 292 -0,5 C -1,0 C
02.03.2013 09:41 1,0 C 91 % 1025,1 hPa 0,0 l/m 6,8 km/h (2 Bft) W-NW 292 -0,3 C -1,2 C
02.03.2013 09:46 1,3 C 91 % 1024,9 hPa 0,0 l/m 18,0 km/h (3 Bft) W-NW 292 -0,0 C -3,3 C
02.03.2013 09:51 1,3 C 91 % 1024,9 hPa 0,0 l/m 14,8 km/h (3 Bft) NW 315 -0,0 C -2,8 C
02.03.2013 09:56 1,3 C 91 % 1024,9 hPa 0,0 l/m 6,5 km/h (2 Bft) W 270 -0,0 C -0,7 C
02.03.2013 10:01 1,5 C 90 % 1025,1 hPa 0,0 l/m 6,8 km/h (2 Bft) W 270 0,0 C -0,6 C
02.03.2013 10:06 1,6 C 90 % 1024,8 hPa 0,0 l/m 7,9 km/h (2 Bft) NW 315 0,1 C -0,8 C
02.03.2013 10:11 1,8 C 89 % 1024,8 hPa 0,0 l/m 5,8 km/h (2 Bft) W-NW 292 0,2 C 0,1 C
02.03.2013 10:16 2,1 C 89 % 1024,8 hPa 0,0 l/m 4,0 km/h (1 Bft) NW 315 0,5 C 2,1 C
02.03.2013 10:21 2,2 C 89 % 1024,9 hPa 0,0 l/m 6,1 km/h (2 Bft) NW 315 0,6 C 0,5 C
02.03.2013 10:26 2,3 C 88 % 1024,8 hPa 0,0 l/m 9,4 km/h (2 Bft) W-SW 247 0,5 C -0,4 C
02.03.2013 10:31 2,4 C 88 % 1024,8 hPa 0,0 l/m 4,0 km/h (1 Bft) W-NW 292 0,6 C 2,4 C
02.03.2013 10:36 2,5 C 87 % 1024,8 hPa 0,0 l/m 8,6 km/h (2 Bft) NW 315 0,6 C 0,0 C
02.03.2013 10:41 2,6 C 87 % 1024,9 hPa 0,0 l/m 6,5 km/h (2 Bft) W-NW 292 0,7 C 0,8 C
02.03.2013 10:46 2,8 C 86 % 1024,5 hPa 0,0 l/m 5,0 km/h (1 Bft) NW 315 0,7 C 1,6 C
02.03.2013 10:51 2,9 C 86 % 1024,7 hPa 0,0 l/m 2,5 km/h (1 Bft) W-NW 292 0,8 C 2,9 C
02.03.2013 10:56 2,9 C 85 % 1024,8 hPa 0,0 l/m 10,1 km/h (2 Bft) NW 315 0,6 C 0,1 C
02.03.2013 11:01 3,1 C 85 % 1024,7 hPa 0,0 l/m 2,5 km/h (1 Bft) W 270 0,8 C 3,1 C
02.03.2013 11:06 3,2 C 84 % 1024,9 hPa 0,0 l/m 8,3 km/h (2 Bft) NW 315 0,8 C 0,9 C
02.03.2013 11:11 3,4 C 84 % 1024,9 hPa 0,0 l/m 4,7 km/h (1 Bft) W-SW 247 1,0 C 2,4 C
02.03.2013 11:16 3,5 C 84 % 1024,7 hPa 0,0 l/m 8,3 km/h (2 Bft) W-NW 292 1,1 C 1,3 C
02.03.2013 11:21 3,6 C 83 % 1024,7 hPa 0,0 l/m 14,4 km/h (3 Bft) NW 315 1,0 C 0,1 C
02.03.2013 11:26 3,8 C 82 % 1024,7 hPa 0,0 l/m 12,2 km/h (2 Bft) W-NW 292 1,0 C 0,8 C
02.03.2013 11:31 3,8 C 82 % 1024,8 hPa 0,0 l/m 12,2 km/h (2 Bft) W 270 1,0 C 0,8 C
02.03.2013 11:36 3,9 C 81 % 1024,7 hPa 0,0 l/m 7,6 km/h (2 Bft) W-NW 292 0,9 C 2,0 C
02.03.2013 11:41 3,9 C 81 % 1024,7 hPa 0,0 l/m 12,2 km/h (2 Bft) W 270 0,9 C 0,9 C
02.03.2013 11:46 4,1 C 81 % 1024,6 hPa 0,0 l/m 14,0 km/h (3 Bft) W 270 1,1 C 0,8 C
02.03.2013 11:51 4,2 C 80 % 1024,5 hPa 0,0 l/m 4,3 km/h (1 Bft) W 270 1,1 C 4,2 C
02.03.2013 11:56 4,2 C 80 % 1024,6 hPa 0,0 l/m 6,5 km/h (2 Bft) NW 315 1,1 C 2,6 C
02.03.2013 12:01 4,3 C 79 % 1024,5 hPa 0,0 l/m 14,0 km/h (3 Bft) W-SW 247 1,0 C 1,0 C
02.03.2013 12:06 4,4 C 78 % 1024,5 hPa 0,0 l/m 16,9 km/h (3 Bft) W-NW 292 0,9 C 0,7 C
02.03.2013 12:11 4,4 C 78 % 1024,5 hPa 0,0 l/m 4,0 km/h (1 Bft) W 270 0,9 C 4,4 C
02.03.2013 12:16 4,6 C 78 % 1024,5 hPa 0,0 l/m 5,8 km/h (2 Bft) W-NW 292 1,1 C 3,3 C
02.03.2013 12:21 4,7 C 77 % 1024,6 hPa 0,0 l/m 14,8 km/h (3 Bft) W 270 1,0 C 1,4 C
02.03.2013 12:26 4,8 C 76 % 1024,3 hPa 0,0 l/m 9,7 km/h (2 Bft) W-SW 247 0,9 C 2,5 C
02.03.2013 12:31 4,8 C 75 % 1024,2 hPa 0,0 l/m 12,2 km/h (2 Bft) NW 315 0,8 C 2,0 C
02.03.2013 12:36 4,9 C 75 % 1024,3 hPa 0,0 l/m 14,8 km/h (3 Bft) NW 315 0,8 C 1,7 C
02.03.2013 12:41 4,9 C 74 % 1024,3 hPa 0,0 l/m 21,2 km/h (4 Bft) NW 315 0,7 C 0,8 C
02.03.2013 12:46 5,0 C 74 % 1024,3 hPa 0,0 l/m 4,7 km/h (1 Bft) W-NW 292 0,8 C 4,2 C
02.03.2013 12:51 5,2 C 73 % 1024,3 hPa 0,0 l/m 5,8 km/h (2 Bft) W-NW 292 0,8 C 4,0 C
02.03.2013 12:56 5,2 C 73 % 1024,2 hPa 0,0 l/m 27,0 km/h (4 Bft) W 270 0,8 C 0,6 C
02.03.2013 13:01 5,3 C 72 % 1024,0 hPa 0,0 l/m 14,4 km/h (3 Bft) W-SW 247 0,7 C 2,2 C
02.03.2013 13:06 5,2 C 72 % 1024,0 hPa 0,0 l/m 18,4 km/h (3 Bft) W 270 0,6 C 1,5 C
02.03.2013 13:11 5,3 C 72 % 1023,8 hPa 0,0 l/m 19,4 km/h (3 Bft) W-SW 247 0,7 C 1,5 C
02.03.2013 13:16 5,4 C 71 % 1023,7 hPa 0,0 l/m 5,8 km/h (2 Bft) W-SW 247 0,6 C 4,2 C
02.03.2013 13:21 5,6 C 71 % 1023,7 hPa 0,0 l/m 8,3 km/h (2 Bft) W 270 0,8 C 3,8 C
02.03.2013 13:26 5,8 C 71 % 1023,7 hPa 0,0 l/m 14,4 km/h (3 Bft) W-SW 247 1,0 C 2,8 C
02.03.2013 13:31 5,8 C 69 % 1023,6 hPa 0,0 l/m 18,4 km/h (3 Bft) W 270 0,6 C 2,3 C
02.03.2013 13:36 5,8 C 69 % 1023,5 hPa 0,0 l/m 30,6 km/h (5 Bft) W 270 0,6 C 1,0 C
02.03.2013 13:41 5,9 C 70 % 1023,3 hPa 0,0 l/m 9,7 km/h (2 Bft) W-SW 247 0,9 C 3,8 C
02.03.2013 13:46 5,9 C 69 % 1023,3 hPa 0,0 l/m 8,6 km/h (2 Bft) W-NW 292 0,7 C 4,0 C
02.03.2013 13:51 5,9 C 68 % 1023,2 hPa 0,0 l/m 13,3 km/h (3 Bft) N-NW 337 0,5 C 3,1 C
02.03.2013 13:56 6,1 C 67 % 1023,1 hPa 0,0 l/m 14,4 km/h (3 Bft) W 270 0,4 C 3,2 C
02.03.2013 14:01 6,2 C 68 % 1023,1 hPa 0,0 l/m 13,3 km/h (3 Bft) SW 225 0,7 C 3,5 C
02.03.2013 14:06 6,3 C 67 % 1022,8 hPa 0,0 l/m 24,5 km/h (4 Bft) W-SW 247 0,6 C 2,2 C
02.03.2013 14:11 6,4 C 65 % 1022,9 hPa 0,0 l/m 11,5 km/h (2 Bft) W 270 0,3 C 4,0 C
02.03.2013 14:16 6,4 C 65 % 1022,7 hPa 0,0 l/m 7,6 km/h (2 Bft) W-SW 247 0,3 C 4,9 C
02.03.2013 14:21 6,5 C 64 % 1022,7 hPa 0,0 l/m 23,0 km/h (4 Bft) W 270 0,2 C 2,6 C
02.03.2013 14:26 6,6 C 64 % 1022,6 hPa 0,0 l/m 7,6 km/h (2 Bft) W 270 0,3 C 5,1 C
02.03.2013 14:31 6,7 C 64 % 1022,5 hPa 0,0 l/m 24,1 km/h (4 Bft) W-NW 292 0,4 C 2,8 C
02.03.2013 14:36 6,7 C 63 % 1022,4 hPa 0,0 l/m 9,0 km/h (2 Bft) W-SW 247 0,2 C 4,9 C
02.03.2013 14:41 6,7 C 63 % 1022,2 hPa 0,0 l/m 6,5 km/h (2 Bft) W 270 0,2 C 5,5 C
02.03.2013 14:46 6,9 C 63 % 1022,4 hPa 0,0 l/m 8,6 km/h (2 Bft) W 270 0,4 C 5,2 C
02.03.2013 14:51 6,9 C 62 % 1022,2 hPa 0,0 l/m 16,9 km/h (3 Bft) W 270 0,1 C 3,8 C
02.03.2013 14:56 6,9 C 61 % 1022,2 hPa 0,0 l/m 13,7 km/h (3 Bft) W-SW 247 -0,1 C 4,3 C
02.03.2013 15:01 6,9 C 60 % 1022,0 hPa 0,0 l/m 20,9 km/h (4 Bft) W-SW 247 -0,3 C 3,4 C
02.03.2013 15:06 6,9 C 60 % 1022,1 hPa 0,0 l/m 8,3 km/h (2 Bft) W 270 -0,3 C 5,3 C
02.03.2013 15:11 6,9 C 60 % 1022,0 hPa 0,0 l/m 9,0 km/h (2 Bft) W 270 -0,3 C 5,1 C
02.03.2013 15:16 6,9 C 60 % 1022,0 hPa 0,0 l/m 10,8 km/h (2 Bft) W 270 -0,3 C 4,8 C
02.03.2013 15:21 6,9 C 60 % 1021,9 hPa 0,0 l/m 6,1 km/h (2 Bft) W-SW 247 -0,3 C 5,9 C
02.03.2013 15:26 6,9 C 60 % 1021,7 hPa 0,0 l/m 20,9 km/h (4 Bft) W 270 -0,3 C 3,4 C
02.03.2013 15:31 6,9 C 60 % 1021,8 hPa 0,0 l/m 6,8 km/h (2 Bft) W-NW 292 -0,3 C 5,7 C
02.03.2013 15:36 6,9 C 60 % 1021,6 hPa 0,0 l/m 8,3 km/h (2 Bft) W-SW 247 -0,3 C 5,3 C
02.03.2013 15:41 6,9 C 60 % 1021,5 hPa 0,0 l/m 16,9 km/h (3 Bft) W-NW 292 -0,3 C 3,8 C
02.03.2013 15:46 6,9 C 60 % 1021,4 hPa 0,0 l/m 6,8 km/h (2 Bft) W-NW 292 -0,3 C 5,7 C
02.03.2013 15:51 6,9 C 60 % 1021,4 hPa 0,0 l/m 20,2 km/h (4 Bft) W-SW 247 -0,3 C 3,4 C
02.03.2013 15:56 6,8 C 60 % 1021,3 hPa 0,0 l/m 16,9 km/h (3 Bft) W-SW 247 -0,4 C 3,7 C
02.03.2013 16:01 6,7 C 59 % 1021,1 hPa 0,0 l/m 27,0 km/h (4 Bft) W 270 -0,7 C 2,5 C
02.03.2013 16:06 6,7 C 60 % 1021,0 hPa 0,0 l/m 11,9 km/h (2 Bft) W-SW 247 -0,5 C 4,3 C
02.03.2013 16:11 6,6 C 60 % 1020,9 hPa 0,0 l/m 21,2 km/h (4 Bft) W-SW 247 -0,6 C 3,0 C
02.03.2013 16:16 6,6 C 60 % 1020,9 hPa 0,0 l/m 24,5 km/h (4 Bft) W 270 -0,6 C 2,6 C
02.03.2013 16:21 6,5 C 60 % 1021,0 hPa 0,0 l/m 14,4 km/h (3 Bft) W-SW 247 -0,7 C 3,7 C
02.03.2013 16:26 6,4 C 60 % 1020,9 hPa 0,0 l/m 20,9 km/h (4 Bft) SW 225 -0,8 C 2,7 C
02.03.2013 16:31 6,4 C 61 % 1020,8 hPa 0,0 l/m 13,0 km/h (3 Bft) W-SW 247 -0,6 C 3,8 C
02.03.2013 16:36 6,3 C 61 % 1020,6 hPa 0,0 l/m 12,2 km/h (2 Bft) W 270 -0,7 C 3,8 C
02.03.2013 16:41 6,1 C 61 % 1020,6 hPa 0,0 l/m 15,5 km/h (3 Bft) SW 225 -0,8 C 3,0 C
02.03.2013 16:46 6,0 C 62 % 1020,5 hPa 0,0 l/m 10,4 km/h (2 Bft) W-SW 247 -0,7 C 3,8 C
02.03.2013 16:51 5,9 C 62 % 1020,4 hPa 0,0 l/m 16,6 km/h (3 Bft) W-SW 247 -0,8 C 2,6 C
02.03.2013 16:56 5,7 C 62 % 1020,4 hPa 0,0 l/m 9,4 km/h (2 Bft) W-SW 247 -1,0 C 3,6 C
02.03.2013 17:01 5,6 C 62 % 1020,4 hPa 0,0 l/m 11,2 km/h (2 Bft) W 270 -1,1 C 3,1 C
02.03.2013 17:06 5,5 C 63 % 1020,4 hPa 0,0 l/m 21,2 km/h (4 Bft) W 270 -1,0 C 1,6 C
02.03.2013 17:11 5,3 C 64 % 1020,3 hPa 0,0 l/m 16,6 km/h (3 Bft) W 270 -0,9 C 1,9 C
02.03.2013 17:16 5,2 C 64 % 1020,3 hPa 0,0 l/m 4,7 km/h (1 Bft) S-SW 202 -1,0 C 4,4 C
02.03.2013 17:21 5,1 C 65 % 1020,2 hPa 0,0 l/m 10,4 km/h (2 Bft) W 270 -0,9 C 2,7 C
02.03.2013 17:26 4,9 C 65 % 1020,2 hPa 0,0 l/m 4,7 km/h (1 Bft) W-SW 247 -1,1 C 4,1 C
02.03.2013 17:31 4,9 C 66 % 1020,1 hPa 0,0 l/m 16,2 km/h (3 Bft) W 270 -0,9 C 1,4 C
02.03.2013 17:36 4,8 C 66 % 1020,2 hPa 0,0 l/m 7,9 km/h (2 Bft) W-SW 247 -1,0 C 2,9 C
02.03.2013 17:41 4,6 C 67 % 1020,1 hPa 0,0 l/m 9,7 km/h (2 Bft) W 270 -1,0 C 2,2 C
02.03.2013 17:46 4,4 C 67 % 1020,2 hPa 0,0 l/m 10,1 km/h (2 Bft) W 270 -1,2 C 1,9 C
02.03.2013 17:51 4,4 C 67 % 1020,1 hPa 0,0 l/m 7,2 km/h (2 Bft) W-SW 247 -1,2 C 2,7 C
02.03.2013 17:56 4,2 C 67 % 1020,2 hPa 0,0 l/m 6,5 km/h (2 Bft) W 270 -1,4 C 2,6 C
02.03.2013 18:01 4,1 C 68 % 1020,2 hPa 0,0 l/m 10,4 km/h (2 Bft) W-SW 247 -1,3 C 1,5 C
02.03.2013 18:06 4,0 C 68 % 1020,1 hPa 0,0 l/m 6,1 km/h (2 Bft) W 270 -1,4 C 2,5 C
02.03.2013 18:11 3,9 C 69 % 1020,2 hPa 0,0 l/m 7,6 km/h (2 Bft) W 270 -1,3 C 2,0 C
02.03.2013 18:16 3,8 C 69 % 1020,2 hPa 0,0 l/m 4,7 km/h (1 Bft) W 270 -1,4 C 2,8 C
02.03.2013 18:21 3,6 C 71 % 1020,4 hPa 0,0 l/m 4,0 km/h (1 Bft) N-NO 22 -1,2 C 3,6 C
02.03.2013 18:26 3,3 C 73 % 1020,3 hPa 0,0 l/m 6,8 km/h (2 Bft) NW 315 -1,1 C 1,5 C
02.03.2013 18:31 3,0 C 74 % 1020,3 hPa 0,0 l/m 4,7 km/h (1 Bft) N-NW 337 -1,2 C 1,9 C
02.03.2013 18:36 2,7 C 75 % 1020,4 hPa 0,0 l/m 16,2 km/h (3 Bft) N-NW 337 -1,3 C -1,3 C
02.03.2013 18:41 2,4 C 78 % 1020,5 hPa 0,0 l/m 10,1 km/h (2 Bft) N-NO 22 -1,0 C -0,5 C
02.03.2013 18:46 2,1 C 79 % 1020,5 hPa 0,0 l/m 14,4 km/h (3 Bft) N-NO 22 -1,2 C -1,7 C
02.03.2013 18:51 1,9 C 79 % 1020,6 hPa 0,0 l/m 14,4 km/h (3 Bft) N-NW 337 -1,3 C -2,0 C
02.03.2013 18:56 1,8 C 79 % 1020,7 hPa 0,0 l/m 14,0 km/h (3 Bft) N-NO 22 -1,4 C -2,0 C
02.03.2013 19:01 1,6 C 80 % 1020,6 hPa 0,0 l/m 14,4 km/h (3 Bft) N-NW 337 -1,5 C -2,3 C
02.03.2013 19:06 1,4 C 80 % 1020,7 hPa 0,0 l/m 10,1 km/h (2 Bft) N-NO 22 -1,7 C -1,7 C
02.03.2013 19:11 1,3 C 80 % 1020,7 hPa 0,0 l/m 10,1 km/h (2 Bft) NW 315 -1,8 C -1,8 C
02.03.2013 19:16 1,3 C 80 % 1020,7 hPa 0,0 l/m 19,1 km/h (3 Bft) NW 315 -1,8 C -3,5 C
02.03.2013 19:21 1,3 C 80 % 1020,7 hPa 0,0 l/m 4,7 km/h (1 Bft) N-NW 337 -1,8 C 0,0 C
02.03.2013 19:26 1,1 C 80 % 1020,5 hPa 0,0 l/m 16,6 km/h (3 Bft) W-NW 292 -2,0 C -3,3 C
02.03.2013 19:31 1,0 C 81 % 1020,5 hPa 0,0 l/m 11,9 km/h (2 Bft) W-NW 292 -1,9 C -2,6 C
02.03.2013 19:36 1,0 C 81 % 1020,6 hPa 0,0 l/m 7,2 km/h (2 Bft) W-NW 292 -1,9 C -1,3 C
02.03.2013 19:41 0,9 C 81 % 1020,5 hPa 0,0 l/m 10,1 km/h (2 Bft) W 270 -2,0 C -2,3 C
02.03.2013 19:46 0,9 C 81 % 1020,4 hPa 0,0 l/m 12,2 km/h (2 Bft) NW 315 -2,0 C -2,8 C
02.03.2013 19:51 0,8 C 82 % 1020,3 hPa 0,0 l/m 10,1 km/h (2 Bft) N-NW 337 -1,9 C -2,4 C
02.03.2013 19:56 0,8 C 82 % 1020,4 hPa 0,0 l/m 11,9 km/h (2 Bft) W-NW 292 -1,9 C -2,8 C
02.03.2013 20:01 0,7 C 82 % 1020,3 hPa 0,0 l/m 12,2 km/h (2 Bft) NW 315 -2,0 C -3,0 C
02.03.2013 20:06 0,6 C 82 % 1020,4 hPa 0,0 l/m 9,0 km/h (2 Bft) W 270 -2,1 C -2,3 C
02.03.2013 20:11 0,6 C 82 % 1020,4 hPa 0,0 l/m 16,9 km/h (3 Bft) NW 315 -2,1 C -4,0 C
02.03.2013 20:16 0,7 C 83 % 1020,4 hPa 0,0 l/m 10,4 km/h (2 Bft) W 270 -1,8 C -2,6 C
02.03.2013 20:21 0,7 C 83 % 1020,3 hPa 0,0 l/m 5,8 km/h (2 Bft) NW 315 -1,8 C -1,1 C
02.03.2013 20:26 0,8 C 83 % 1020,3 hPa 0,0 l/m 5,8 km/h (2 Bft) W 270 -1,8 C -1,0 C
02.03.2013 20:31 0,9 C 83 % 1020,3 hPa 0,0 l/m 4,0 km/h (1 Bft) W-NW 292 -1,7 C 0,9 C
02.03.2013 20:36 1,0 C 83 % 1020,3 hPa 0,0 l/m 0,0 km/h (0 Bft) W 270 -1,6 C 1,0 C
02.03.2013 20:41 1,2 C 83 % 1020,2 hPa 0,0 l/m 7,6 km/h (2 Bft) W-NW 292 -1,4 C -1,2 C
02.03.2013 20:46 1,3 C 83 % 1020,2 hPa 0,0 l/m 7,6 km/h (2 Bft) W-NW 292 -1,3 C -1,1 C
02.03.2013 20:51 1,3 C 82 % 1020,0 hPa 0,0 l/m 3,2 km/h (1 Bft) NW 315 -1,4 C 1,3 C
02.03.2013 20:56 1,4 C 82 % 1020,1 hPa 0,0 l/m 10,1 km/h (2 Bft) W 270 -1,3 C -1,7 C
02.03.2013 21:01 1,5 C 82 % 1020,0 hPa 0,0 l/m 5,8 km/h (2 Bft) W 270 -1,2 C -0,2 C
02.03.2013 21:06 1,5 C 81 % 1020,0 hPa 0,0 l/m 6,5 km/h (2 Bft) W 270 -1,4 C -0,5 C
02.03.2013 21:11 1,6 C 81 % 1019,9 hPa 0,0 l/m 7,6 km/h (2 Bft) NW 315 -1,3 C -0,7 C
02.03.2013 21:16 1,6 C 81 % 1020,0 hPa 0,0 l/m 7,6 km/h (2 Bft) W-NW 292 -1,3 C -0,7 C
02.03.2013 21:21 1,6 C 81 % 1019,9 hPa 0,0 l/m 15,8 km/h (3 Bft) SW 225 -1,3 C -2,6 C
02.03.2013 21:26 1,6 C 81 % 1019,8 hPa 0,0 l/m 14,4 km/h (3 Bft) W-SW 247 -1,3 C -2,3 C
02.03.2013 21:31 1,6 C 81 % 1019,7 hPa 0,0 l/m 9,7 km/h (2 Bft) W-SW 247 -1,3 C -1,3 C
02.03.2013 21:36 1,5 C 81 % 1019,7 hPa 0,0 l/m 7,2 km/h (2 Bft) W-SW 247 -1,4 C -0,7 C
02.03.2013 21:41 1,4 C 81 % 1019,6 hPa 0,0 l/m 8,3 km/h (2 Bft) SW 225 -1,5 C -1,2 C
02.03.2013 21:46 1,4 C 81 % 1019,8 hPa 0,0 l/m 4,0 km/h (1 Bft) W 270 -1,5 C 1,4 C
02.03.2013 21:51 1,4 C 81 % 1019,7 hPa 0,0 l/m 7,9 km/h (2 Bft) W-SW 247 -1,5 C -1,1 C
02.03.2013 21:56 1,4 C 82 % 1019,7 hPa 0,0 l/m 10,1 km/h (2 Bft) W 270 -1,3 C -1,7 C
02.03.2013 22:01 1,4 C 82 % 1019,6 hPa 0,0 l/m 14,0 km/h (3 Bft) W 270 -1,3 C -2,5 C
02.03.2013 22:06 1,4 C 82 % 1019,5 hPa 0,0 l/m 11,2 km/h (2 Bft) W 270 -1,3 C -1,9 C
02.03.2013 22:11 1,5 C 82 % 1019,3 hPa 0,0 l/m 23,0 km/h (4 Bft) W-SW 247 -1,2 C -3,7 C
02.03.2013 22:16 1,5 C 82 % 1019,2 hPa 0,0 l/m 18,4 km/h (3 Bft) W 270 -1,2 C -3,1 C
02.03.2013 22:21 1,4 C 82 % 1019,3 hPa 0,0 l/m 20,2 km/h (4 Bft) SW 225 -1,3 C -3,5 C
02.03.2013 22:26 1,5 C 82 % 1019,3 hPa 0,0 l/m 17,6 km/h (3 Bft) W 270 -1,2 C -3,0 C
02.03.2013 22:31 1,5 C 82 % 1019,3 hPa 0,0 l/m 7,2 km/h (2 Bft) NW 315 -1,2 C -0,7 C
02.03.2013 22:36 1,6 C 82 % 1019,4 hPa 0,0 l/m 11,9 km/h (2 Bft) W 270 -1,1 C -1,8 C
02.03.2013 22:41 1,6 C 82 % 1019,4 hPa 0,0 l/m 7,2 km/h (2 Bft) W-NW 292 -1,1 C -0,6 C
02.03.2013 22:46 1,6 C 82 % 1019,2 hPa 0,0 l/m 3,2 km/h (1 Bft) W-NW 292 -1,1 C 1,6 C
02.03.2013 22:51 1,6 C 82 % 1019,2 hPa 0,0 l/m 14,8 km/h (3 Bft) W 270 -1,1 C -2,4 C
02.03.2013 22:56 1,6 C 82 % 1019,3 hPa 0,0 l/m 15,1 km/h (3 Bft) W 270 -1,1 C -2,5 C
02.03.2013 23:01 1,6 C 82 % 1019,1 hPa 0,0 l/m 23,4 km/h (4 Bft) W 270 -1,1 C -3,7 C
02.03.2013 23:06 1,6 C 82 % 1019,2 hPa 0,0 l/m 13,7 km/h (3 Bft) W-NW 292 -1,1 C -2,2 C
02.03.2013 23:11 1,6 C 82 % 1019,2 hPa 0,0 l/m 10,1 km/h (2 Bft) W-SW 247 -1,1 C -1,4 C
02.03.2013 23:16 1,6 C 82 % 1018,9 hPa 0,0 l/m 18,4 km/h (3 Bft) NW 315 -1,1 C -3,0 C
02.03.2013 23:21 1,6 C 82 % 1019,2 hPa 0,0 l/m 9,4 km/h (2 Bft) W-NW 292 -1,1 C -1,3 C
02.03.2013 23:26 1,6 C 82 % 1019,1 hPa 0,0 l/m 6,1 km/h (2 Bft) W-NW 292 -1,1 C -0,2 C
02.03.2013 23:31 1,6 C 82 % 1018,9 hPa 0,0 l/m 7,6 km/h (2 Bft) W-SW 247 -1,1 C -0,7 C
02.03.2013 23:36 1,6 C 82 % 1019,0 hPa 0,0 l/m 9,4 km/h (2 Bft) W-SW 247 -1,1 C -1,3 C
02.03.2013 23:41 1,6 C 82 % 1018,9 hPa 0,0 l/m 6,5 km/h (2 Bft) SW 225 -1,1 C -0,4 C
02.03.2013 23:46 1,7 C 82 % 1019,2 hPa 0,0 l/m 13,0 km/h (3 Bft) W 270 -1,0 C -1,9 C
02.03.2013 23:51 1,7 C 82 % 1018,9 hPa 0,0 l/m 19,4 km/h (3 Bft) W-NW 292 -1,0 C -3,0 C
02.03.2013 23:56 1,8 C 82 % 1019,0 hPa 0,0 l/m 7,9 km/h (2 Bft) W 270 -0,9 C -0,6 C
_ Min-Zeit 06:46 16:01 23:16 - 00:21 - - 06:46 20:11
Minimum _ -1,9 C 59 % 1018,9 hPa - 0,0 km/h (0 Bft) - - -3,2 C -4,0 C
_ Max-Zeit 14:46 07:31 00:46 00:01 13:36 - - 11:46 15:21
Maximum _ 6,9 C 92 % 1025,3 hPa 0,0 l/m 30,6 km/h
W (5 Bft)
- - 1,1 C 5,9 C
Durchschnitt _ 1,7 C 82 % 1023,0 hPa #0,0 l/m 8,0 km/h (2 Bft) W - -1,3 C -0,0 C
(c) by David Heller